Time;durP1;ratioP1;P1;durP2;ratioP2;P2;SDS_P1;SDS_P2;PMS_P1;PMS_P2;Temp;Humidity;BMP_temperature;BMP_pressure;BME280_temperature;BME280_humidity;BME280_pressure;Samples;Min_cycle;Max_cycle;Signal;HPM_P1;HPM_P2
2024/01/04 00:01:24;;;;;;;2.55;1.30;;;6.30;99.90;;;;;;4964062;28;20090;-86
2024/01/04 00:03:50;;;;;;;5.72;1.38;;;7.40;99.90;;;;;;4950026;28;20110;-86
2024/01/04 00:06:17;;;;;;;3.10;1.20;;;7.20;99.90;;;;;;4996988;28;20039;-86
2024/01/04 00:08:43;;;;;;;4.53;1.33;;;6.60;99.90;;;;;;4963842;28;20070;-86
2024/01/04 00:11:09;;;;;;;4.78;1.35;;;7.60;99.90;;;;;;4999607;28;20073;-86
2024/01/04 00:13:34;;;;;;;2.80;1.20;;;7.70;99.90;;;;;;4950367;28;20500;-86
2024/01/04 00:16:00;;;;;;;2.45;1.23;;;6.20;99.90;;;;;;4963376;28;20043;-85
2024/01/04 00:18:26;;;;;;;5.70;1.50;;;6.20;99.90;;;;;;4964860;28;20051;-86
2024/01/04 00:20:52;;;;;;;4.15;1.40;;;6.10;99.90;;;;;;4967475;28;20909;-86
2024/01/04 00:23:18;;;;;;;3.95;1.40;;;6.80;99.90;;;;;;4967323;28;20135;-86
2024/01/04 00:25:44;;;;;;;6.43;1.40;;;7.10;99.90;;;;;;4988001;28;20046;-86
2024/01/04 00:28:09;;;;;;;1.85;1.05;;;6.10;99.90;;;;;;4988288;28;20846;-86
2024/01/04 00:30:36;;;;;;;3.85;1.40;;;6.20;99.90;;;;;;4979008;28;20207;-86
2024/01/04 00:33:01;;;;;;;4.68;1.20;;;6.10;99.90;;;;;;4999509;28;20034;-85
2024/01/04 00:35:27;;;;;;;5.00;1.20;;;6.10;99.90;;;;;;4992959;28;20065;-86
2024/01/04 00:37:53;;;;;;;3.58;1.13;;;6.90;99.90;;;;;;4975028;28;20069;-86
2024/01/04 00:40:19;;;;;;;4.15;1.40;;;7.00;99.90;;;;;;5000978;28;20046;-86
2024/01/04 00:42:44;;;;;;;4.20;1.30;;;7.50;99.90;;;;;;4983373;28;20038;-86
2024/01/04 00:45:10;;;;;;;4.47;1.40;;;6.10;99.90;;;;;;5034170;28;20119;-86
2024/01/04 00:47:36;;;;;;;4.35;1.58;;;6.00;99.90;;;;;;4985752;28;20041;-86
2024/01/04 00:50:02;;;;;;;3.00;1.42;;;6.00;99.90;;;;;;4970492;28;20549;-86
2024/01/04 00:52:27;;;;;;;4.82;1.40;;;7.70;99.90;;;;;;4977559;28;20042;-86
2024/01/04 00:54:55;;;;;;;3.40;1.40;;;6.00;99.90;;;;;;4996043;28;20050;-86
2024/01/04 00:57:21;;;;;;;3.85;1.30;;;6.80;99.90;;;;;;5020452;28;20048;-86
2024/01/04 00:59:47;;;;;;;3.88;1.38;;;6.00;99.90;;;;;;4985373;28;20046;-86
2024/01/04 01:02:12;;;;;;;9.18;1.65;;;6.00;99.90;;;;;;5000299;28;20237;-86
2024/01/04 01:04:38;;;;;;;2.13;1.20;;;6.00;99.90;;;;;;4975881;28;20038;-86
2024/01/04 01:07:04;;;;;;;3.95;1.60;;;7.90;99.90;;;;;;4994331;28;20049;-86
2024/01/04 01:09:29;;;;;;;4.15;1.27;;;7.10;99.90;;;;;;4999187;28;20033;-86
2024/01/04 01:11:55;;;;;;;2.17;1.20;;;7.10;99.90;;;;;;4968723;28;21915;-86
2024/01/04 01:14:21;;;;;;;1.80;1.10;;;5.90;99.90;;;;;;5000032;28;20044;-86
2024/01/04 01:16:46;;;;;;;3.75;1.23;;;6.00;99.90;;;;;;4996903;28;20131;-86
2024/01/04 01:19:12;;;;;;;2.83;1.35;;;6.80;99.90;;;;;;4993069;28;20037;-86
2024/01/04 01:21:38;;;;;;;4.43;1.38;;;5.90;99.90;;;;;;4957424;28;20069;-87
2024/01/04 01:24:04;;;;;;;4.32;1.38;;;6.80;99.90;;;;;;4985204;28;20060;-86
2024/01/04 01:26:29;;;;;;;2.97;1.20;;;5.90;99.90;;;;;;4985139;28;20046;-86
2024/01/04 01:28:55;;;;;;;3.15;1.20;;;6.30;99.90;;;;;;4994253;28;20046;-86
2024/01/04 01:31:21;;;;;;;3.10;1.33;;;5.90;99.90;;;;;;4985044;28;20042;-86
2024/01/04 01:33:46;;;;;;;2.55;1.30;;;7.40;99.90;;;;;;4970905;28;20077;-85
2024/01/04 01:36:12;;;;;;;3.92;1.38;;;7.20;99.90;;;;;;4993846;28;20049;-85
2024/01/04 01:38:38;;;;;;;4.38;1.30;;;6.50;99.90;;;;;;4994184;28;20479;-86
2024/01/04 01:41:04;;;;;;;5.43;1.45;;;6.20;99.90;;;;;;4980262;28;20120;-86
2024/01/04 01:43:30;;;;;;;5.10;1.83;;;5.80;99.90;;;;;;4968656;28;20517;-86
2024/01/04 01:45:56;;;;;;;2.33;1.30;;;7.20;99.90;;;;;;4995876;28;20045;-86
2024/01/04 01:48:22;;;;;;;3.22;1.30;;;5.60;99.90;;;;;;4962838;28;20034;-86
2024/01/04 01:50:48;;;;;;;5.85;1.10;;;6.40;99.90;;;;;;4995757;28;20424;-86
2024/01/04 01:53:13;;;;;;;4.65;1.27;;;6.50;99.90;;;;;;4968991;28;20042;-87
2024/01/04 01:55:39;;;;;;;2.67;1.30;;;5.50;99.90;;;;;;4995305;28;20046;-86
2024/01/04 01:58:05;;;;;;;2.03;1.20;;;5.50;99.90;;;;;;5012824;28;20042;-86
2024/01/04 02:00:32;;;;;;;1.85;1.10;;;6.10;99.90;;;;;;5013836;28;20035;-86
2024/01/04 02:02:59;;;;;;;3.40;1.45;;;5.50;99.90;;;;;;5000846;28;20117;-86
2024/01/04 02:05:25;;;;;;;1.70;1.20;;;6.30;99.90;;;;;;4998107;28;20040;-86
2024/01/04 02:07:50;;;;;;;3.88;1.35;;;5.40;99.90;;;;;;4999808;28;20046;-86
2024/01/04 02:10:16;;;;;;;5.97;1.45;;;5.60;99.90;;;;;;4954872;28;20046;-86
2024/01/04 02:12:42;;;;;;;2.10;1.17;;;5.40;99.90;;;;;;4982823;28;20488;-87
2024/01/04 02:15:08;;;;;;;2.90;1.20;;;6.20;99.90;;;;;;4996422;28;20042;-86
2024/01/04 02:17:34;;;;;;;2.50;1.27;;;5.20;99.90;;;;;;5012764;28;20048;-85
2024/01/04 02:20:00;;;;;;;3.03;1.10;;;6.50;99.90;;;;;;4996156;28;20037;-86
2024/01/04 02:22:26;;;;;;;2.88;1.10;;;5.10;99.90;;;;;;4994075;28;20526;-86
2024/01/04 02:24:51;;;;;;;2.90;1.20;;;5.10;99.90;;;;;;5002642;28;20070;-86
2024/01/04 02:27:18;;;;;;;3.22;1.20;;;6.50;99.90;;;;;;5016324;28;20064;-86
2024/01/04 02:29:43;;;;;;;1.88;1.10;;;5.10;99.90;;;;;;4987532;28;20077;-86
2024/01/04 02:32:09;;;;;;;2.85;1.42;;;6.50;99.90;;;;;;4991379;28;20519;-87
2024/01/04 02:34:35;;;;;;;2.58;1.30;;;5.90;99.90;;;;;;4994367;28;20281;-86
2024/01/04 02:37:00;;;;;;;2.58;1.10;;;5.10;99.90;;;;;;4999702;28;20497;-86
2024/01/04 02:39:26;;;;;;;2.65;1.20;;;6.10;99.90;;;;;;4970644;28;20038;-86
2024/01/04 02:41:52;;;;;;;3.67;1.23;;;5.10;99.90;;;;;;5002882;28;20045;-86
2024/01/04 02:44:18;;;;;;;4.05;1.40;;;5.90;99.90;;;;;;4956592;28;20096;-86
2024/01/04 02:46:43;;;;;;;2.78;1.20;;;6.80;99.90;;;;;;5019075;28;20038;-86
2024/01/04 02:49:09;;;;;;;4.05;1.30;;;5.00;99.90;;;;;;5002943;28;20056;-86
2024/01/04 02:51:35;;;;;;;3.42;1.40;;;;;;;;;;4977918;28;20095;-86
2024/01/04 02:54:01;;;;;;;4.22;1.35;;;5.00;99.90;;;;;;4987127;28;20045;-86
2024/01/04 02:56:27;;;;;;;2.72;1.40;;;5.40;99.90;;;;;;4995830;28;20046;-86
2024/01/04 02:58:53;;;;;;;5.05;1.52;;;4.90;99.90;;;;;;4974119;28;20052;-86
2024/01/04 03:01:22;;;;;;;2.53;1.20;;;4.80;99.90;;;;;;5017375;28;20037;-86
2024/01/04 03:03:52;;;;;;;3.72;1.30;;;5.90;99.90;;;;;;5018247;28;20041;-86
2024/01/04 03:06:25;;;;;;;2.33;1.42;;;4.90;99.90;;;;;;5014834;28;20041;-86
2024/01/04 03:08:51;;;;;;;4.72;2.05;;;4.90;99.90;;;;;;4970410;28;20108;-86
2024/01/04 03:11:17;;;;;;;2.85;1.38;;;5.40;99.90;;;;;;5020330;28;20125;-86
2024/01/04 03:13:43;;;;;;;2.83;1.40;;;4.90;99.90;;;;;;4988489;28;20502;-86
2024/01/04 03:16:10;;;;;;;4.90;1.42;;;5.00;99.90;;;;;;5038838;28;20034;-86
2024/01/04 03:18:35;;;;;;;3.80;1.33;;;5.80;99.90;;;;;;4995330;28;20045;-86
2024/01/04 03:21:08;;;;;;;4.28;1.50;;;6.20;99.90;;;;;;4973569;28;20120;-86
2024/01/04 03:23:34;;;;;;;;;;;4.80;99.90;;;;;;4994823;28;20518;-86
2024/01/04 03:26:01;;;;;;;4.15;1.20;;;5.70;99.90;;;;;;4989387;28;19918;-86
2024/01/04 03:28:26;;;;;;;5.43;1.63;;;5.80;99.90;;;;;;4988385;28;20041;-86
2024/01/04 03:30:52;;;;;;;4.03;1.45;;;5.80;99.90;;;;;;4996741;28;20046;-86
2024/01/04 03:33:18;;;;;;;2.35;1.20;;;4.90;99.90;;;;;;4972306;28;20501;-86
2024/01/04 03:35:44;;;;;;;2.72;1.40;;;4.80;99.90;;;;;;5033879;28;20050;-86
2024/01/04 03:38:09;;;;;;;4.95;2.00;;;6.00;99.90;;;;;;5002067;28;20076;-86
2024/01/04 03:40:35;;;;;;;3.58;1.33;;;6.00;99.90;;;;;;4984208;28;20049;-86
2024/01/04 03:43:02;;;;;;;4.15;1.50;;;5.80;99.90;;;;;;4980254;28;20060;-86
2024/01/04 03:45:28;;;;;;;3.53;1.40;;;6.70;99.90;;;;;;4980928;28;20498;-86
2024/01/04 03:47:54;;;;;;;3.17;1.40;;;6.00;99.90;;;;;;4969760;28;20061;-86
2024/01/04 03:50:19;;;;;;;4.53;1.30;;;6.50;99.90;;;;;;5003296;28;20042;-85
2024/01/04 03:52:45;;;;;;;2.58;1.20;;;5.70;99.90;;;;;;5002622;28;20042;-86
2024/01/04 03:55:11;;;;;;;2.92;1.20;;;5.00;99.90;;;;;;4995688;28;20117;-86
2024/01/04 03:57:37;;;;;;;3.40;1.23;;;4.70;99.90;;;;;;4995717;28;20045;-86
2024/01/04 04:00:03;;;;;;;3.20;1.33;;;5.50;99.90;;;;;;4999381;28;20270;-86
2024/01/04 04:02:29;;;;;;;3.25;1.40;;;4.70;99.90;;;;;;4970364;28;20081;-86
2024/01/04 04:04:56;;;;;;;3.40;1.27;;;5.80;99.90;;;;;;5000862;28;20061;-85
2024/01/04 04:07:23;;;;;;;2.92;1.25;;;6.30;99.90;;;;;;4996868;28;20034;-86
2024/01/04 04:09:48;;;;;;;3.40;1.38;;;4.80;99.90;;;;;;5028043;28;20304;-86
2024/01/04 04:12:14;;;;;;;2.85;1.30;;;4.60;99.90;;;;;;4981860;28;20248;-85
2024/01/04 04:14:41;;;;;;;3.15;1.25;;;5.80;99.90;;;;;;4995324;28;20038;-86
2024/01/04 04:17:07;;;;;;;3.83;1.45;;;4.80;99.90;;;;;;5036235;28;20034;-86
2024/01/04 04:19:33;;;;;;;2.42;1.30;;;4.70;99.90;;;;;;5000224;28;20108;-86
2024/01/04 04:21:58;;;;;;;3.90;1.33;;;5.50;99.90;;;;;;4995048;28;21558;-86
2024/01/04 04:24:24;;;;;;;2.72;1.30;;;4.70;99.90;;;;;;4969560;28;20038;-85
2024/01/04 04:26:52;;;;;;;4.05;1.40;;;6.10;99.90;;;;;;4985409;28;20085;-86
2024/01/04 04:29:18;;;;;;;3.50;1.40;;;5.80;99.90;;;;;;4982497;28;20117;-86
2024/01/04 04:31:44;;;;;;;4.25;1.52;;;5.70;99.90;;;;;;4969421;28;20128;-86
2024/01/04 04:34:10;;;;;;;2.20;1.30;;;5.80;99.90;;;;;;4998091;28;20053;-86
2024/01/04 04:36:35;;;;;;;3.15;1.35;;;6.30;99.90;;;;;;4982568;28;20136;-86
2024/01/04 04:39:02;;;;;;;2.80;1.30;;;4.80;99.90;;;;;;4971554;28;20101;-86
2024/01/04 04:41:28;;;;;;;2.65;1.33;;;5.90;99.90;;;;;;4985297;28;20893;-86
2024/01/04 04:43:54;;;;;;;2.83;1.27;;;5.20;99.90;;;;;;4972574;28;20041;-86
2024/01/04 04:46:20;;;;;;;3.72;1.30;;;4.70;99.90;;;;;;4994410;28;22167;-86
2024/01/04 04:48:46;;;;;;;4.53;1.30;;;4.90;99.90;;;;;;4995001;28;20117;-86
2024/01/04 04:51:11;;;;;;;5.85;1.40;;;6.10;99.90;;;;;;4994091;28;20149;-86
2024/01/04 04:53:37;;;;;;;3.95;1.75;;;5.50;99.90;;;;;;4995859;28;20038;-86
2024/01/04 04:56:04;;;;;;;2.83;1.40;;;5.60;99.90;;;;;;5000402;28;20263;-85
2024/01/04 04:58:29;;;;;;;3.35;1.30;;;4.70;99.90;;;;;;4995259;28;20407;-86
2024/01/04 05:00:56;;;;;;;3.10;1.40;;;5.30;99.90;;;;;;5012022;28;20048;-86
2024/01/04 05:03:22;;;;;;;4.78;1.40;;;4.70;99.90;;;;;;5012553;28;20041;-86
2024/01/04 05:05:48;;;;;;;4.68;1.40;;;5.10;99.90;;;;;;4996650;28;20041;-87
2024/01/04 05:08:13;;;;;;;4.10;1.40;;;6.40;99.90;;;;;;5013677;28;20041;-86
2024/01/04 05:10:39;;;;;;;3.00;1.30;;;4.70;99.90;;;;;;5015839;28;20038;-86
2024/01/04 05:13:05;;;;;;;3.17;1.30;;;5.30;99.90;;;;;;4986606;28;20064;-86
2024/01/04 05:15:31;;;;;;;5.15;1.60;;;6.60;99.90;;;;;;4995509;28;20053;-86
2024/01/04 05:17:57;;;;;;;3.95;1.55;;;5.90;99.90;;;;;;5001060;28;20419;-87
2024/01/04 05:20:22;;;;;;;4.88;1.80;;;5.70;99.90;;;;;;4995929;28;20088;-86
2024/01/04 05:22:48;;;;;;;3.78;1.40;;;5.00;99.90;;;;;;5014876;28;20050;-86
2024/01/04 05:25:15;;;;;;;3.30;1.30;;;5.20;99.90;;;;;;4998828;28;20038;-86
2024/01/04 05:27:40;;;;;;;3.60;1.38;;;5.10;99.90;;;;;;4997000;28;20722;-86
2024/01/04 05:30:07;;;;;;;4.07;1.60;;;5.60;99.90;;;;;;4998459;28;20123;-86
2024/01/04 05:32:37;;;;;;;3.28;1.35;;;4.60;99.90;;;;;;4985922;28;20119;-86
2024/01/04 05:35:03;;;;;;;2.80;1.60;;;5.40;99.90;;;;;;5004605;28;20037;-85
2024/01/04 05:37:29;;;;;;;2.67;1.33;;;4.50;99.90;;;;;;4990877;28;20049;-86
2024/01/04 05:39:55;;;;;;;6.30;1.50;;;5.20;99.90;;;;;;4991290;28;20047;-85
2024/01/04 05:42:23;;;;;;;5.30;1.42;;;;;;;;;;4972105;28;20155;-87
2024/01/04 05:44:49;;;;;;;5.88;1.45;;;4.40;99.90;;;;;;4997586;28;20043;-86
2024/01/04 05:47:15;;;;;;;3.03;1.38;;;5.90;99.90;;;;;;5000736;28;20116;-86
2024/01/04 05:49:40;;;;;;;4.28;1.50;;;5.60;99.90;;;;;;4993581;28;20042;-86
2024/01/04 05:52:06;;;;;;;2.83;1.30;;;4.90;99.90;;;;;;4999108;28;20038;-86
2024/01/04 05:54:32;;;;;;;4.00;1.40;;;5.30;99.90;;;;;;4978412;28;20026;-86
2024/01/04 05:56:58;;;;;;;4.18;1.50;;;4.30;99.90;;;;;;5027817;28;20039;-86
2024/01/04 05:59:24;;;;;;;3.25;1.20;;;5.20;99.90;;;;;;4989790;28;20416;-86
2024/01/04 06:01:54;;;;;;;5.97;1.50;;;6.20;99.90;;;;;;5009547;28;20376;-86
2024/01/04 06:04:20;;;;;;;3.70;1.38;;;4.20;99.90;;;;;;5012840;28;20065;-86
2024/01/04 06:06:49;;;;;;;3.47;1.30;;;5.30;99.90;;;;;;4984186;28;20073;-86
2024/01/04 06:09:20;;;;;;;3.42;1.30;;;5.30;99.90;;;;;;4985447;28;20029;-86
2024/01/04 06:11:46;;;;;;;4.22;1.30;;;5.80;99.90;;;;;;4994284;28;20042;-86
2024/01/04 06:14:12;;;;;;;7.78;1.40;;;5.50;99.90;;;;;;4970171;28;20096;-86
2024/01/04 06:16:38;;;;;;;3.10;1.38;;;4.90;99.90;;;;;;4989330;28;20038;-85
2024/01/04 06:19:04;;;;;;;3.95;1.50;;;4.90;99.90;;;;;;4991178;28;20034;-86
2024/01/04 06:21:30;;;;;;;3.67;1.42;;;4.80;99.90;;;;;;4990718;28;20117;-86
2024/01/04 06:23:56;;;;;;;3.95;1.45;;;4.60;99.90;;;;;;5013325;28;20055;-86
2024/01/04 06:26:23;;;;;;;5.78;1.40;;;5.20;99.90;;;;;;5020559;28;20495;-86
2024/01/04 06:28:49;;;;;;;3.45;1.48;;;4.00;99.90;;;;;;5000741;28;20092;-86
2024/01/04 06:31:15;;;;;;;4.57;1.48;;;5.60;99.90;;;;;;4989715;28;20513;-86
2024/01/04 06:33:40;;;;;;;6.47;1.63;;;3.80;99.90;;;;;;5019092;28;20102;-86
2024/01/04 06:36:07;;;;;;;3.13;1.60;;;4.10;99.90;;;;;;5017375;28;20033;-86
2024/01/04 06:38:35;;;;;;;5.20;1.67;;;3.80;99.90;;;;;;4996260;28;20050;-86
2024/01/04 06:41:03;;;;;;;3.33;1.38;;;4.90;99.90;;;;;;5003028;28;20038;-86
2024/01/04 06:43:30;;;;;;;3.75;1.30;;;4.30;99.90;;;;;;4978082;28;20559;-86
2024/01/04 06:45:56;;;;;;;5.97;1.52;;;3.70;99.90;;;;;;4984774;28;20049;-86
2024/01/04 06:48:22;;;;;;;4.30;1.40;;;4.50;99.90;;;;;;5004195;28;20124;-86
2024/01/04 06:50:48;;;;;;;2.33;1.30;;;3.60;99.90;;;;;;5005395;28;20463;-86
2024/01/04 06:53:16;;;;;;;1.75;1.20;;;4.10;99.90;;;;;;4978721;28;20628;-86
2024/01/04 06:55:43;;;;;;;4.55;1.50;;;3.80;99.90;;;;;;5005813;28;20059;-85
2024/01/04 06:58:09;;;;;;;2.88;1.40;;;4.30;99.90;;;;;;5000683;28;20045;-86
2024/01/04 07:00:36;;;;;;;3.28;1.30;;;4.80;99.90;;;;;;4999714;28;20034;-86
2024/01/04 07:03:02;;;;;;;3.80;1.40;;;3.80;99.90;;;;;;4998425;28;20484;-86
2024/01/04 07:05:28;;;;;;;7.38;1.60;;;5.40;99.90;;;;;;4991004;28;20047;-85
2024/01/04 07:07:54;;;;;;;3.70;1.50;;;5.30;99.90;;;;;;4989869;28;20113;-86
2024/01/04 07:10:19;;;;;;;4.03;1.50;;;4.10;99.90;;;;;;4987611;28;20053;-86
2024/01/04 07:12:46;;;;;;;4.43;1.45;;;3.60;99.90;;;;;;4990131;28;20121;-86
2024/01/04 07:15:12;;;;;;;2.67;1.40;;;3.80;99.90;;;;;;5015365;28;20952;-86
2024/01/04 07:17:39;;;;;;;3.90;1.40;;;3.60;99.90;;;;;;5018024;28;20399;-86
2024/01/04 07:20:06;;;;;;;4.88;1.50;;;4.60;99.90;;;;;;4997821;28;20080;-86
2024/01/04 07:22:32;;;;;;;3.30;1.33;;;3.60;99.90;;;;;;5031902;28;20054;-85
2024/01/04 07:24:58;;;;;;;2.38;1.30;;;4.30;99.90;;;;;;5012295;28;20135;-85
2024/01/04 07:27:24;;;;;;;3.75;1.30;;;3.70;99.90;;;;;;5014525;28;20503;-86
2024/01/04 07:29:50;;;;;;;5.15;1.40;;;3.60;99.90;;;;;;5018296;28;20068;-86
2024/01/04 07:32:18;;;;;;;4.15;1.52;;;3.60;99.90;;;;;;4998756;28;20042;-86
2024/01/04 07:34:44;;;;;;;5.47;1.50;;;4.90;99.90;;;;;;4977143;28;20049;-86
2024/01/04 07:37:11;;;;;;;7.75;1.70;;;4.50;99.90;;;;;;4993391;28;20120;-85
2024/01/04 07:39:37;;;;;;;5.80;1.90;;;3.60;99.90;;;;;;5001452;28;20803;-86
2024/01/04 07:42:02;;;;;;;4.30;1.50;;;4.90;99.90;;;;;;4970374;28;20245;-86
2024/01/04 07:44:28;;;;;;;5.38;1.55;;;3.70;99.90;;;;;;4971068;28;20041;-86
2024/01/04 07:46:54;;;;;;;3.65;1.50;;;4.20;99.90;;;;;;4991908;28;20125;-85
2024/01/04 07:49:20;;;;;;;5.15;1.73;;;3.70;99.90;;;;;;4979685;28;20035;-86
2024/01/04 07:51:45;;;;;;;3.10;1.40;;;3.60;99.90;;;;;;4995099;28;20045;-86
2024/01/04 07:54:11;;;;;;;5.57;1.67;;;3.70;99.90;;;;;;5013831;28;20037;-84
2024/01/04 07:56:38;;;;;;;4.18;1.50;;;5.00;99.90;;;;;;4968528;28;20037;-84
2024/01/04 07:59:04;;;;;;;5.57;1.50;;;4.70;99.90;;;;;;5003166;28;20045;-84
2024/01/04 08:01:29;;;;;;;2.63;1.42;;;3.70;99.90;;;;;;5017209;28;20042;-84
2024/01/04 08:03:55;;;;;;;5.78;1.65;;;3.70;99.90;;;;;;5014242;28;20723;-85
2024/01/04 08:06:21;;;;;;;8.48;2.08;;;4.40;99.90;;;;;;4995102;28;20113;-84
2024/01/04 08:08:46;;;;;;;4.85;1.60;;;4.00;99.90;;;;;;4998986;28;20562;-84
2024/01/04 08:11:12;;;;;;;4.28;1.50;;;3.60;99.90;;;;;;4967783;28;20034;-84
2024/01/04 08:13:38;;;;;;;4.18;1.58;;;3.70;99.90;;;;;;5018435;28;20106;-84
2024/01/04 08:16:04;;;;;;;5.40;1.40;;;3.90;99.90;;;;;;4980862;28;20041;-84
2024/01/04 08:18:31;;;;;;;5.93;1.80;;;3.60;99.90;;;;;;4992939;28;20045;-84
2024/01/04 08:20:56;;;;;;;5.93;1.65;;;3.60;99.90;;;;;;4993763;28;20684;-84
2024/01/04 08:23:22;;;;;;;4.05;1.50;;;3.90;99.90;;;;;;4983729;28;20049;-85
2024/01/04 08:25:48;;;;;;;4.55;1.60;;;4.60;99.90;;;;;;5000299;28;20033;-84
2024/01/04 08:28:14;;;;;;;3.13;1.33;;;4.80;99.90;;;;;;4977580;28;20034;-85
2024/01/04 08:30:39;;;;;;;3.20;1.38;;;4.40;99.90;;;;;;5000050;28;20042;-84
2024/01/04 08:33:05;;;;;;;3.90;1.48;;;3.60;99.90;;;;;;4993542;28;20141;-85
2024/01/04 08:35:31;;;;;;;4.40;1.50;;;5.10;99.90;;;;;;4970618;28;20049;-84
2024/01/04 08:37:57;;;;;;;4.35;1.75;;;5.10;99.90;;;;;;5019364;28;20089;-85
2024/01/04 08:40:22;;;;;;;5.90;1.60;;;4.40;99.90;;;;;;4997706;28;20034;-85
2024/01/04 08:42:48;;;;;;;4.50;1.33;;;5.70;99.90;;;;;;4955156;28;20045;-85
2024/01/04 08:45:14;;;;;;;2.83;1.30;;;4.80;99.90;;;;;;5014936;28;20104;-84
2024/01/04 08:47:40;;;;;;;6.35;1.60;;;3.90;99.90;;;;;;5003809;28;20470;-85
2024/01/04 08:50:06;;;;;;;4.07;1.70;;;4.80;99.90;;;;;;4997004;28;20046;-85
2024/01/04 08:52:32;;;;;;;5.03;1.40;;;3.80;99.90;;;;;;4993671;28;20076;-84
2024/01/04 08:54:58;;;;;;;4.78;1.60;;;5.40;99.90;;;;;;4986860;28;20115;-85
2024/01/04 08:57:24;;;;;;;3.58;1.50;;;4.00;99.90;;;;;;5002668;28;20622;-85
2024/01/04 08:59:50;;;;;;;3.53;1.45;;;4.40;99.90;;;;;;5014073;28;20121;-85
2024/01/04 09:02:16;;;;;;;2.55;1.40;;;4.60;99.90;;;;;;4995419;28;20037;-85
2024/01/04 09:04:42;;;;;;;3.58;1.40;;;4.20;99.90;;;;;;5037302;28;20552;-85
2024/01/04 09:07:08;;;;;;;4.45;1.40;;;5.50;99.90;;;;;;4999919;28;20046;-85
2024/01/04 09:09:35;;;;;;;4.78;1.40;;;4.20;99.90;;;;;;5003316;28;20042;-85
2024/01/04 09:12:01;;;;;;;4.60;1.38;;;5.70;99.90;;;;;;5014952;28;20399;-85
2024/01/04 09:14:26;;;;;;;3.35;1.30;;;4.90;99.90;;;;;;4987483;28;20030;-85
2024/01/04 09:16:52;;;;;;;3.47;1.40;;;5.30;99.90;;;;;;4995131;28;20041;-85
2024/01/04 09:19:20;;;;;;;2.90;1.40;;;5.00;99.90;;;;;;4995892;28;20117;-85
2024/01/04 09:21:50;;;;;;;4.93;1.40;;;4.80;99.90;;;;;;4996197;28;20198;-85
2024/01/04 09:24:18;;;;;;;2.78;1.25;;;5.50;99.90;;;;;;4969290;28;20152;-85
2024/01/04 09:26:45;;;;;;;5.50;1.60;;;4.40;99.90;;;;;;4983880;28;20038;-85
2024/01/04 09:29:12;;;;;;;5.97;1.63;;;5.70;99.90;;;;;;4968578;28;20045;-85
2024/01/04 09:31:39;;;;;;;4.45;1.60;;;4.30;99.90;;;;;;4998793;28;20164;-84
2024/01/04 09:34:04;;;;;;;3.33;1.42;;;4.40;99.90;;;;;;5011877;28;20037;-85
2024/01/04 09:36:31;;;;;;;2.90;1.23;;;5.10;99.90;;;;;;4999803;28;20522;-84
2024/01/04 09:38:56;;;;;;;5.07;1.52;;;4.40;99.90;;;;;;4996147;28;20499;-85
2024/01/04 09:41:30;;;;;;;3.70;1.33;;;4.50;99.90;;;;;;4967834;28;20044;-84
2024/01/04 09:44:03;;;;;;;3.92;1.52;;;4.40;99.90;;;;;;4980933;28;20053;-84
2024/01/04 09:46:33;;;;;;;;;;;5.40;99.90;;;;;;5017294;28;20092;-84
2024/01/04 09:48:59;;;;;;;2.30;1.30;;;4.40;99.90;;;;;;5013974;28;20009;-84
2024/01/04 09:51:37;;;;;;;4.10;1.40;;;4.30;99.90;;;;;;5001197;28;20046;-85
2024/01/04 09:54:04;;;;;;;4.13;1.42;;;4.40;99.90;;;;;;5000230;28;20042;-88
2024/01/04 09:56:32;;;;;;;6.13;1.73;;;5.60;99.90;;;;;;5035412;28;20038;-86
2024/01/04 09:58:58;;;;;;;3.92;1.50;;;4.90;99.90;;;;;;5018089;28;20104;-85
2024/01/04 10:01:35;;;;;;;3.15;1.25;;;4.50;99.90;;;;;;4967691;28;20452;-85
2024/01/04 10:04:12;;;;;;;4.63;1.40;;;4.50;99.90;;;;;;4986505;28;20061;-86
2024/01/04 10:06:45;;;;;;;3.60;1.30;;;5.10;99.90;;;;;;5020781;28;20045;-86
2024/01/04 10:09:23;;;;;;;3.10;1.33;;;5.40;99.90;;;;;;5020620;28;20034;-85
2024/01/04 10:11:57;;;;;;;2.88;1.27;;;4.60;99.90;;;;;;5008926;28;20105;-88
2024/01/04 10:14:27;;;;;;;3.42;1.40;;;4.60;99.90;;;;;;5004378;28;20037;-86
2024/01/04 10:16:56;;;;;;;4.30;1.40;;;4.60;99.90;;;;;;5022953;28;20041;-86
2024/01/04 10:19:25;;;;;;;3.10;1.40;;;5.60;99.90;;;;;;4989392;28;20042;-86
2024/01/04 10:21:51;;;;;;;4.40;1.65;;;4.60;99.90;;;;;;5016001;28;20048;-86
2024/01/04 10:24:25;;;;;;;4.65;1.50;;;6.00;99.90;;;;;;5000503;28;20050;-87
2024/01/04 10:27:01;;;;;;;4.13;1.50;;;5.20;99.90;;;;;;5036063;28;20045;-85
2024/01/04 10:29:28;;;;;;;4.20;1.40;;;4.80;99.90;;;;;;4986025;28;20053;-85
2024/01/04 10:32:04;;;;;;;4.32;1.50;;;5.20;99.90;;;;;;4988316;28;20100;-88
2024/01/04 10:34:34;;;;;;;4.22;1.40;;;4.70;99.90;;;;;;4980746;28;20077;-84
2024/01/04 10:37:17;;;;;;;4.43;1.60;;;5.50;99.90;;;;;;4987506;28;20172;-85
2024/01/04 10:39:55;;;;;;;4.15;1.63;;;5.70;99.90;;;;;;5033786;28;20053;-86
2024/01/04 10:42:21;;;;;;;4.10;1.50;;;5.50;99.90;;;;;;5034375;28;20053;-85
2024/01/04 10:44:52;;;;;;;3.85;1.30;;;4.60;99.90;;;;;;4998344;28;20048;-86
2024/01/04 10:47:17;;;;;;;5.53;1.70;;;4.60;99.90;;;;;;5017228;28;20030;-84
2024/01/04 10:49:47;;;;;;;4.50;1.60;;;4.60;99.90;;;;;;5020649;28;20033;-86
2024/01/04 10:52:15;;;;;;;3.20;1.33;;;5.30;99.90;;;;;;4985058;28;20038;-86
2024/01/04 10:54:42;;;;;;;4.70;1.50;;;5.00;99.90;;;;;;5009288;28;20038;-87
2024/01/04 10:57:08;;;;;;;4.78;1.45;;;4.50;99.90;;;;;;4995447;28;20042;-86
2024/01/04 10:59:34;;;;;;;2.17;1.20;;;4.50;99.90;;;;;;4987265;28;20029;-87
2024/01/04 11:02:01;;;;;;;5.25;1.40;;;5.60;99.90;;;;;;4996514;28;20103;-88
2024/01/04 11:04:29;;;;;;;3.25;1.40;;;4.50;99.90;;;;;;5036800;28;20129;-87
2024/01/04 11:06:55;;;;;;;6.82;1.50;;;5.60;99.90;;;;;;4997840;28;20041;-87
2024/01/04 11:09:22;;;;;;;2.92;1.30;;;5.20;99.90;;;;;;4990723;28;20046;-86
2024/01/04 11:11:53;;;;;;;3.55;1.30;;;4.70;99.90;;;;;;4969008;28;20041;-86
2024/01/04 11:14:23;;;;;;;3.90;1.42;;;5.70;99.90;;;;;;5004641;28;20033;-86
2024/01/04 11:17:16;;;;;;;2.58;1.27;;;6.50;99.90;;;;;;5011499;28;20068;-86
2024/01/04 11:20:08;;;;;;;3.10;1.23;;;4.80;99.90;;;;;;4983582;28;20133;-85
2024/01/04 11:22:34;;;;;;;2.15;1.25;;;4.80;99.90;;;;;;5030958;28;20062;-86
2024/01/04 11:25:27;;;;;;;3.40;1.30;;;4.80;99.90;;;;;;4985385;28;20069;-86
2024/01/04 11:27:54;;;;;;;3.97;1.50;;;4.80;99.90;;;;;;5033702;28;20049;-84
2024/01/04 11:30:20;;;;;;;2.95;1.40;;;4.80;99.90;;;;;;4980302;28;20038;-85
2024/01/04 11:32:48;;;;;;;3.65;1.30;;;4.90;99.90;;;;;;5014554;28;20235;-84
2024/01/04 11:35:15;;;;;;;2.58;1.33;;;4.90;99.90;;;;;;5014271;28;20046;-85
2024/01/04 11:37:45;;;;;;;3.03;1.27;;;4.90;99.90;;;;;;5016236;28;20606;-85
2024/01/04 11:40:11;;;;;;;5.60;1.48;;;5.00;99.90;;;;;;5002083;28;20072;-85
2024/01/04 11:42:40;;;;;;;2.70;1.38;;;5.10;99.90;;;;;;4984700;28;20144;-84
2024/01/04 11:45:14;;;;;;;3.83;1.40;;;5.10;99.90;;;;;;5016733;28;20033;-84
2024/01/04 11:47:43;;;;;;;4.30;1.60;;;6.10;99.90;;;;;;4987245;28;20156;-84
2024/01/04 11:50:21;;;;;;;3.33;1.40;;;5.60;99.90;;;;;;5030665;28;20364;-84
2024/01/04 11:52:47;;;;;;;4.28;1.60;;;5.20;99.90;;;;;;4967876;28;20041;-85
2024/01/04 11:55:26;;;;;;;3.90;1.50;;;6.60;99.90;;;;;;4996384;28;20036;-84
2024/01/04 11:58:11;;;;;;;3.67;1.33;;;6.90;99.90;;;;;;4994552;28;20419;-84
2024/01/04 12:00:51;;;;;;;2.38;1.20;;;5.60;99.90;;;;;;5005690;28;20049;-84
2024/01/04 12:03:20;;;;;;;4.25;1.77;;;5.30;99.90;;;;;;4989726;28;20030;-84
2024/01/04 12:05:49;;;;;;;4.15;1.30;;;6.20;99.90;;;;;;4985843;28;20490;-84
2024/01/04 12:08:28;;;;;;;4.55;1.30;;;5.70;99.90;;;;;;5016549;28;20088;-85
2024/01/04 12:11:07;;;;;;;2.75;1.40;;;5.00;99.90;;;;;;5001110;28;20084;-84
2024/01/04 12:13:33;;;;;;;5.13;1.30;;;6.20;99.90;;;;;;4989179;28;20077;-84
2024/01/04 12:15:59;;;;;;;6.78;1.42;;;5.40;99.90;;;;;;5000478;28;20038;-84
2024/01/04 12:18:24;;;;;;;3.70;1.30;;;6.30;99.90;;;;;;4997067;28;20045;-84
2024/01/04 12:20:50;;;;;;;4.47;1.30;;;5.10;99.90;;;;;;5001920;28;20103;-84
2024/01/04 12:23:17;;;;;;;3.75;1.40;;;5.20;99.90;;;;;;4997127;28;20077;-84
2024/01/04 12:25:43;;;;;;;2.20;1.23;;;5.30;99.90;;;;;;5001342;28;20523;-85
2024/01/04 12:28:09;;;;;;;4.05;1.38;;;6.30;99.90;;;;;;5002781;28;20057;-85
2024/01/04 12:30:39;;;;;;;3.13;1.30;;;5.50;99.90;;;;;;5003534;28;20037;-85
2024/01/04 12:33:06;;;;;;;4.68;1.48;;;5.40;99.90;;;;;;5038530;28;20091;-85
2024/01/04 12:35:32;;;;;;;5.07;1.58;;;6.90;99.90;;;;;;4996113;28;20041;-84
2024/01/04 12:38:02;;;;;;;4.03;1.40;;;6.70;99.90;;;;;;5032558;28;20049;-85
2024/01/04 12:40:36;;;;;;;3.92;1.58;;;5.50;99.90;;;;;;5001589;28;20714;-84
2024/01/04 12:43:03;;;;;;;4.90;1.70;;;7.30;99.90;;;;;;4995664;28;20099;-84
2024/01/04 12:45:29;;;;;;;3.08;1.35;;;5.60;99.90;;;;;;4977207;28;20041;-84
2024/01/04 12:48:02;;;;;;;3.20;1.52;;;5.70;99.90;;;;;;5011950;28;20034;-84
2024/01/04 12:50:32;;;;;;;4.32;1.45;;;5.70;99.90;;;;;;5009743;28;20443;-84
2024/01/04 12:52:57;;;;;;;3.50;1.60;;;5.70;99.90;;;;;;5014734;28;20038;-85
2024/01/04 12:55:27;;;;;;;5.70;1.65;;;6.70;99.90;;;;;;5005912;28;20533;-85
2024/01/04 12:57:53;;;;;;;4.25;1.45;;;5.60;99.90;;;;;;4966787;28;20064;-85